Time;durP1;ratioP1;P1;durP2;ratioP2;P2;SDS_P1;SDS_P2;PMS_P1;PMS_P2;Temp;Humidity;BMP_temperature;BMP_pressure;BME280_temperature;BME280_humidity;BME280_pressure;Samples;Min_cycle;Max_cycle;Signal;HPM_P1;HPM_P2
2023/08/20 00:01:30;;;;;;;6.07;1.52;;;;;;;18.46;88.61;102076.81;4999284;28;20033;-74
2023/08/20 00:03:56;;;;;;;5.05;1.30;;;;;;;18.45;88.68;102079.56;4991206;28;20102;-74
2023/08/20 00:06:22;;;;;;;3.10;1.13;;;;;;;18.44;88.85;102083.16;4984998;28;20137;-73
2023/08/20 00:08:48;;;;;;;3.33;1.08;;;;;;;18.44;89.26;102088.47;4991664;28;20292;-74
2023/08/20 00:11:14;;;;;;;2.42;1.10;;;;;;;18.43;89.14;102082.31;4989955;28;20041;-74
2023/08/20 00:13:40;;;;;;;2.95;1.10;;;;;;;18.42;89.10;102084.06;4988129;28;20274;-74
2023/08/20 00:16:06;;;;;;;2.53;1.02;;;;;;;18.42;89.37;102077.94;4987137;28;20038;-74
2023/08/20 00:18:31;;;;;;;3.33;1.20;;;;;;;18.42;89.40;102077.94;4990196;28;20454;-74
2023/08/20 00:20:57;;;;;;;3.53;1.25;;;;;;;18.39;89.76;102075.44;4990105;28;20050;-74
2023/08/20 00:23:23;;;;;;;3.70;1.23;;;;;;;18.40;89.80;102082.47;4984943;28;20023;-74
2023/08/20 00:25:49;;;;;;;3.53;1.58;;;;;;;18.37;89.79;102088.81;4999177;28;20034;-74
2023/08/20 00:28:14;;;;;;;3.78;1.20;;;;;;;18.36;90.08;102095.03;5011799;28;20053;-74
2023/08/20 00:30:40;;;;;;;3.33;1.20;;;;;;;18.36;90.04;102104.78;4981595;28;20037;-74
2023/08/20 00:33:05;;;;;;;2.40;1.02;;;;;;;18.35;90.05;102113.66;4994969;28;20038;-74
2023/08/20 00:35:31;;;;;;;1.95;1.00;;;;;;;18.32;90.24;102114.69;4998661;28;20057;-74
2023/08/20 00:37:56;;;;;;;3.72;1.15;;;;;;;18.32;90.37;102124.44;4998924;28;20109;-74
2023/08/20 00:40:22;;;;;;;2.13;1.00;;;;;;;18.30;90.48;102128.97;4998458;28;20280;-74
2023/08/20 00:42:47;;;;;;;4.95;1.42;;;;;;;18.30;90.86;102127.19;5007152;28;20379;-74
2023/08/20 00:45:13;;;;;;;5.53;1.38;;;;;;;18.30;90.79;102131.63;4987990;28;20038;-74
2023/08/20 00:47:38;;;;;;;4.15;1.55;;;;;;;18.30;90.88;102132.50;5005844;28;20588;-74
2023/08/20 00:50:07;;;;;;;4.13;1.08;;;;;;;18.29;91.13;102120.16;5010232;28;20038;-74
2023/08/20 00:52:34;;;;;;;6.95;1.38;;;;;;;18.30;91.05;102121.00;5008126;28;20029;-74
2023/08/20 00:55:05;;;;;;;3.72;1.27;;;;;;;18.29;91.21;102117.50;5012315;28;20374;-74
2023/08/20 00:57:30;;;;;;;3.50;1.40;;;;;;;18.29;91.21;102127.25;5002303;28;20048;-74
2023/08/20 00:59:56;;;;;;;5.90;1.25;;;;;;;18.29;91.45;102129.91;5001824;28;20098;-74
2023/08/20 01:04:57;;;;;;;2.97;1.00;;;;;;;18.28;91.55;102137.03;5110692;23;20046;-88
2023/08/20 01:07:42;;;;;;;3.42;1.30;;;;;;;18.28;91.36;102133.50;4996695;28;20040;-88
2023/08/20 01:10:33;;;;;;;5.70;1.60;;;;;;;18.27;91.52;102140.59;5010757;28;20026;-88
2023/08/20 01:13:00;;;;;;;2.95;1.08;;;;;;;18.25;91.49;102134.53;5011445;28;20054;-88
2023/08/20 01:15:26;;;;;;;6.25;1.38;;;;;;;18.25;91.76;102139.81;5016696;28;20344;-88
2023/08/20 01:17:51;;;;;;;4.68;1.55;;;;;;;18.25;91.93;102144.28;5017790;28;20080;-88
2023/08/20 01:20:17;;;;;;;3.17;1.27;;;;;;;18.26;92.26;102140.69;5006813;28;20033;-88
2023/08/20 01:22:51;;;;;;;3.22;0.95;;;;;;;18.25;92.22;102134.53;4992143;28;20038;-88
2023/08/20 01:25:29;;;;;;;3.70;1.25;;;;;;;18.25;92.24;102138.97;4990799;28;20451;-88
2023/08/20 01:28:03;;;;;;;4.00;1.20;;;;;;;18.25;92.00;102136.31;5006678;28;20033;-88
2023/08/20 01:30:31;;;;;;;3.67;1.50;;;;;;;18.25;92.10;102136.31;4993339;28;20112;-88
2023/08/20 01:32:58;;;;;;;3.35;1.35;;;;;;;18.24;92.40;102146.06;4999630;28;20101;-88
2023/08/20 01:35:26;;;;;;;4.15;1.08;;;;;;;18.23;92.54;102137.25;4995028;28;20057;-88
2023/08/20 01:37:51;;;;;;;4.30;1.05;;;;;;;18.23;92.56;102137.25;4987671;28;20034;-88
2023/08/20 01:40:17;;;;;;;3.60;1.20;;;;;;;18.22;92.88;102148.78;5006465;28;20040;-88
2023/08/20 01:42:42;;;;;;;3.67;1.08;;;;;;;18.22;92.80;102151.44;5016818;28;20319;-88
2023/08/20 01:45:08;;;;;;;2.30;1.08;;;;;;;18.19;92.72;102143.66;4998129;28;20037;-88
2023/08/20 01:47:33;;;;;;;6.65;1.38;;;;;;;18.19;92.88;102141.00;4999060;28;20040;-89
2023/08/20 01:49:59;;;;;;;2.95;0.90;;;;;;;18.18;93.18;102141.94;5005667;28;20053;-89
2023/08/20 01:52:25;;;;;;;4.13;1.10;;;;;;;18.17;92.97;102132.28;5016500;28;20105;-88
2023/08/20 01:54:51;;;;;;;3.70;1.15;;;;;;;18.15;93.31;102136.78;4998702;28;20255;-88
2023/08/20 01:57:16;;;;;;;4.10;1.60;;;;;;;18.14;93.43;102140.38;5014965;28;20316;-88
2023/08/20 01:59:42;;;;;;;4.53;1.35;;;;;;;18.13;93.43;102140.47;4987425;28;20037;-88
2023/08/20 02:02:07;;;;;;;5.13;1.50;;;;;;;18.13;93.63;102129.84;4997034;28;20033;-88
2023/08/20 02:04:33;;;;;;;2.42;1.17;;;;;;;18.10;93.58;102128.25;4998126;28;20404;-88
2023/08/20 02:06:58;;;;;;;2.65;1.80;;;;;;;18.08;93.69;102123.94;4989448;28;20266;-89
2023/08/20 02:09:24;;;;;;;4.43;1.30;;;;;;;18.06;93.81;102121.34;5006575;28;20046;-88
2023/08/20 02:11:50;;;;;;;6.18;1.50;;;;;;;18.03;93.92;102127.69;4984548;28;20053;-89
2023/08/20 02:14:16;;;;;;;4.35;1.20;;;;;;;18.02;93.97;102125.97;4979594;28;20098;-88
2023/08/20 02:16:41;;;;;;;5.03;1.42;;;;;;;18.01;94.16;102128.72;4983493;28;20239;-88
2023/08/20 02:19:07;;;;;;;5.72;1.50;;;;;;;17.98;93.97;102120.91;5009319;28;20396;-88
2023/08/20 02:21:33;;;;;;;2.42;1.20;;;;;;;17.97;93.95;102127.13;4981768;28;20038;-88
2023/08/20 02:23:58;;;;;;;3.25;1.40;;;;;;;17.95;94.17;102136.97;4998703;28;20026;-88
2023/08/20 02:26:24;;;;;;;5.03;1.58;;;;;;;17.95;94.51;102136.97;5009752;28;20072;-88
2023/08/20 02:28:49;;;;;;;5.72;2.00;;;;;;;17.92;94.36;102137.13;4996178;28;20034;-88
2023/08/20 02:31:14;;;;;;;5.60;1.88;;;;;;;17.91;94.19;102138.91;4971697;28;20341;-88
2023/08/20 02:33:40;;;;;;;3.55;1.45;;;;;;;17.89;94.69;102140.78;4977132;28;20045;-88
2023/08/20 02:36:05;;;;;;;3.08;1.70;;;;;;;17.88;94.70;102135.56;4968809;28;20018;-88
2023/08/20 02:38:31;;;;;;;2.38;1.00;;;;;;;17.86;94.84;102132.13;4981998;28;20022;-88
2023/08/20 02:40:56;;;;;;;3.97;1.40;;;;;;;17.83;94.81;102144.56;4994820;28;20033;-88
2023/08/20 02:43:22;;;;;;;1.85;1.25;;;;;;;17.82;94.97;102145.50;4995978;28;20040;-88
2023/08/20 02:45:48;;;;;;;5.95;1.35;;;;;;;17.82;94.77;102149.94;4987764;28;20038;-88
2023/08/20 02:48:14;;;;;;;4.05;1.55;;;;;;;17.81;94.72;102150.91;4978647;28;20034;-88
2023/08/20 02:50:40;;;;;;;6.38;1.35;;;;;;;17.80;95.00;102150.03;4989572;28;20332;-88
2023/08/20 02:53:06;;;;;;;3.67;1.40;;;;;;;17.77;95.01;102154.63;4977165;28;20042;-88
2023/08/20 02:55:32;;;;;;;2.92;1.42;;;;;;;17.76;95.21;102159.06;4970539;28;20032;-88
2023/08/20 02:57:58;;;;;;;3.92;1.30;;;;;;;17.76;95.18;102160.88;4962759;28;20034;-88
2023/08/20 03:00:23;;;;;;;5.03;1.95;;;;;;;17.75;95.58;102172.38;4989055;28;20064;-88
2023/08/20 03:02:49;;;;;;;4.18;1.42;;;;;;;17.75;95.13;102172.38;4981112;28;20298;-88
2023/08/20 03:05:15;;;;;;;1.35;0.90;;;;;;;17.73;95.53;102175.09;4984724;28;20054;-88
2023/08/20 03:07:40;;;;;;;3.17;1.33;;;;;;;17.73;95.36;102169.81;4968132;28;20038;-88
2023/08/20 03:10:06;;;;;;;3.05;1.20;;;;;;;17.73;95.34;102177.75;4984959;28;20081;-88
2023/08/20 03:12:32;;;;;;;3.25;1.42;;;;;;;17.73;95.53;102168.97;4981816;28;20038;-88
2023/08/20 03:14:59;;;;;;;5.72;1.40;;;;;;;17.73;95.55;102175.09;4958431;28;20049;-88
2023/08/20 03:17:24;;;;;;;5.22;1.88;;;;;;;17.71;95.76;102163.72;4958602;28;20277;-88
2023/08/20 03:19:55;;;;;;;5.35;1.38;;;;;;;17.73;95.58;102166.31;4982732;28;20089;-88
2023/08/20 03:22:22;;;;;;;2.97;1.50;;;;;;;17.71;95.61;102168.19;4976977;28;20038;-88
2023/08/20 03:24:47;;;;;;;4.50;1.55;;;;;;;17.68;95.94;102163.03;4995284;28;20030;-88
2023/08/20 03:27:12;;;;;;;3.58;1.40;;;;;;;17.68;95.77;102166.53;4969053;28;20027;-88
2023/08/20 03:29:38;;;;;;;4.90;2.15;;;;;;;17.66;95.71;102160.44;4989087;28;20046;-88
2023/08/20 03:32:03;;;;;;;2.13;1.23;;;;;;;17.66;96.10;102163.09;4971774;28;20064;-88
2023/08/20 03:34:29;;;;;;;2.47;1.08;;;;;;;17.65;96.16;102169.34;4989016;28;20034;-88
2023/08/20 03:36:54;;;;;;;2.75;1.20;;;;;;;17.62;95.99;102162.38;4986227;28;20030;-88
2023/08/20 03:39:20;;;;;;;3.38;1.42;;;;;;;17.61;96.01;102159.84;4974992;28;20034;-88
2023/08/20 03:41:45;;;;;;;3.50;1.13;;;;;;;17.60;96.10;102160.75;4992139;28;20037;-88
2023/08/20 03:44:10;;;;;;;3.10;1.48;;;;;;;17.58;96.14;102160.00;4985079;28;20037;-88
2023/08/20 03:46:36;;;;;;;5.35;1.92;;;;;;;17.56;96.19;102152.09;4995045;28;20032;-89
2023/08/20 03:49:01;;;;;;;9.00;1.55;;;;;;;17.54;96.22;102156.63;4988626;28;20045;-89
2023/08/20 03:51:26;;;;;;;4.57;1.77;;;;;;;17.52;96.35;102147.03;5013591;28;20406;-89
2023/08/20 03:53:52;;;;;;;2.88;1.23;;;;;;;17.51;96.40;102156.78;4998335;28;20054;-89
2023/08/20 03:56:20;;;;;;;2.22;1.20;;;;;;;17.49;96.41;102155.16;4996162;28;20061;-89
2023/08/20 03:58:46;;;;;;;4.28;1.25;;;;;;;17.47;96.45;102152.56;4993351;28;20337;-89
2023/08/20 04:01:11;;;;;;;2.10;1.30;;;;;;;17.45;96.15;102160.56;4996715;28;20092;-89
2023/08/20 04:03:37;;;;;;;3.75;1.20;;;;;;;17.44;96.29;102160.66;4954762;28;1248158;-88
2023/08/20 04:06:02;;;;;;;4.95;1.58;;;;;;;17.41;96.18;102166.97;4985834;28;20044;-88
2023/08/20 04:08:29;;;;;;;5.03;1.55;;;;;;;17.39;96.46;102167.94;4977179;28;20054;-88
2023/08/20 04:10:55;;;;;;;4.65;1.23;;;;;;;17.38;96.45;102171.56;4994656;28;20358;-88
2023/08/20 04:13:20;;;;;;;4.25;1.38;;;;;;;17.37;96.39;102177.75;4984590;28;20069;-89
2023/08/20 04:15:46;;;;;;;6.13;1.85;;;;;;;17.35;96.28;102192.88;5011985;28;20325;-89
2023/08/20 04:18:11;;;;;;;4.25;1.52;;;;;;;17.34;96.53;102191.19;4985681;28;20124;-89
2023/08/20 04:20:36;;;;;;;5.05;1.73;;;;;;;17.33;96.54;102198.25;4988459;28;20096;-89
2023/08/20 04:23:02;;;;;;;3.45;1.30;;;;;;;17.31;96.66;102197.44;5006970;28;20062;-88
2023/08/20 04:25:27;;;;;;;4.93;1.50;;;;;;;17.30;96.91;102200.16;4988060;28;20046;-88
2023/08/20 04:27:53;;;;;;;3.10;1.50;;;;;;;17.29;96.68;102206.41;4981425;28;20312;-89
2023/08/20 04:30:18;;;;;;;3.28;1.50;;;;;;;17.29;96.82;102203.78;4987834;28;20034;-88
2023/08/20 04:32:44;;;;;;;4.63;1.60;;;;;;;17.27;97.02;102209.97;4996859;28;20030;-89
2023/08/20 04:35:10;;;;;;;3.33;1.50;;;;;;;17.25;96.99;102208.34;5009339;28;20041;-89
2023/08/20 04:37:35;;;;;;;4.38;1.95;;;;;;;17.24;96.96;102206.63;4979097;28;20044;-89
2023/08/20 04:40:01;;;;;;;3.78;1.50;;;;;;;17.24;97.14;102209.25;4998207;28;20089;-89
2023/08/20 04:42:26;;;;;;;4.90;1.35;;;;;;;17.21;97.01;102206.78;4997737;28;20026;-89
2023/08/20 04:44:52;;;;;;;3.42;1.55;;;;;;;17.20;97.12;102203.25;4977754;28;20048;-89
2023/08/20 04:47:17;;;;;;;5.80;1.50;;;;;;;17.20;97.02;102207.69;5018019;28;20244;-88
2023/08/20 04:49:43;;;;;;;6.22;2.22;;;;;;;17.18;97.42;102210.41;5005684;28;20041;-89
2023/08/20 04:52:08;;;;;;;4.53;1.70;;;;;;;17.18;97.44;102212.22;5018433;28;20315;-89
2023/08/20 04:54:34;;;;;;;3.00;1.60;;;;;;;17.15;97.32;102210.53;4965983;28;20056;-88
2023/08/20 04:56:59;;;;;;;4.50;1.45;;;;;;;17.14;97.33;102214.13;5017904;28;20036;-88
2023/08/20 04:59:26;;;;;;;6.63;1.60;;;;;;;17.13;97.32;102216.84;4977172;28;20186;-89
2023/08/20 05:01:51;;;;;;;3.75;1.85;;;;;;;17.10;97.37;102212.56;4994026;28;20336;-89
2023/08/20 05:04:17;;;;;;;2.63;1.40;;;;;;;17.07;97.56;102212.72;4963038;28;20110;-88
2023/08/20 05:06:42;;;;;;;5.18;1.67;;;;;;;17.06;97.82;102208.31;4979385;28;20042;-88
2023/08/20 05:09:07;;;;;;;5.50;1.52;;;;;;;17.05;97.94;102217.22;4971117;28;20225;-89
2023/08/20 05:11:33;;;;;;;3.47;1.50;;;;;;;17.05;98.13;102214.56;5004017;28;20038;-88
2023/08/20 05:13:59;;;;;;;2.72;1.33;;;;;;;17.04;97.93;102218.13;4980098;28;20034;-89
2023/08/20 05:16:24;;;;;;;3.90;1.60;;;;;;;17.02;98.10;102214.69;4989392;28;20045;-88
2023/08/20 05:18:50;;;;;;;4.45;1.67;;;;;;;17.01;98.07;102219.16;4987226;28;20132;-88
2023/08/20 05:21:15;;;;;;;5.57;1.65;;;;;;;17.01;98.07;102218.28;4991745;28;20034;-89
2023/08/20 05:23:41;;;;;;;3.15;1.40;;;;;;;16.99;98.10;102220.13;4987890;28;20333;-89
2023/08/20 05:26:07;;;;;;;2.53;1.48;;;;;;;16.98;98.19;102213.97;4977228;28;20044;-89
2023/08/20 05:28:33;;;;;;;6.20;1.65;;;;;;;16.98;98.27;102218.44;4979488;28;20213;-88
2023/08/20 05:30:58;;;;;;;4.88;1.80;;;;;;;16.97;98.51;102225.50;4981531;28;20031;-88
2023/08/20 05:33:24;;;;;;;5.32;1.55;;;;;;;16.97;98.54;102212.28;4960738;28;20053;-88
2023/08/20 05:35:50;;;;;;;3.38;1.50;;;;;;;16.98;98.72;102213.13;5002574;28;20298;-88
2023/08/20 05:38:15;;;;;;;3.40;1.67;;;;;;;16.98;98.71;102211.34;4999786;28;20152;-88
2023/08/20 05:40:41;;;;;;;4.85;1.63;;;;;;;16.98;98.77;102216.63;4988048;28;20054;-88
2023/08/20 05:43:06;;;;;;;6.25;2.10;;;;;;;16.99;98.89;102218.38;4973714;28;20168;-88
2023/08/20 05:45:33;;;;;;;5.97;2.40;;;;;;;16.99;99.18;102217.47;4968730;28;20039;-88
2023/08/20 05:47:59;;;;;;;3.80;1.50;;;;;;;17.00;99.26;102212.13;4972492;28;20044;-89
2023/08/20 05:50:24;;;;;;;2.78;1.42;;;;;;;17.00;99.36;102213.91;4990992;28;20333;-89
2023/08/20 05:52:50;;;;;;;5.13;1.92;;;;;;;17.00;99.51;102211.28;4972625;28;20037;-89
2023/08/20 05:55:15;;;;;;;8.32;1.67;;;;;;;17.00;99.80;102212.13;4968953;28;20221;-89
2023/08/20 05:57:42;;;;;;;5.38;1.80;;;;;;;17.00;99.52;102212.13;4965530;28;20035;-89
2023/08/20 06:00:09;;;;;;;3.55;1.80;;;;;;;17.03;99.65;102222.56;4972237;28;20048;-88
2023/08/20 06:02:34;;;;;;;5.03;1.88;;;;;;;17.03;99.99;102214.63;4979100;28;20038;-88
2023/08/20 06:04:59;;;;;;;5.68;2.10;;;;;;;17.04;99.81;102213.69;4985421;28;20107;-89
2023/08/20 06:07:25;;;;;;;8.38;2.30;;;;;;;17.06;99.98;102213.63;5001233;28;20415;-88
2023/08/20 06:09:51;;;;;;;4.63;1.92;;;;;;;17.07;100.00;102212.72;4997515;28;20054;-88
2023/08/20 06:12:17;;;;;;;5.75;1.98;;;;;;;17.09;100.00;102216.13;4960025;28;20094;-89
2023/08/20 06:14:42;;;;;;;4.88;1.75;;;;;;;17.10;100.00;102220.50;4978947;28;20035;-89
2023/08/20 06:17:08;;;;;;;5.90;1.85;;;;;;;17.12;99.41;102220.41;4977900;28;20418;-88
2023/08/20 06:19:34;;;;;;;4.38;1.73;;;;;;;17.12;99.85;102218.66;4981264;28;20053;-89
2023/08/20 06:21:59;;;;;;;4.28;1.90;;;;;;;17.13;99.74;102219.50;4978863;28;20030;-89
2023/08/20 06:24:24;;;;;;;4.30;1.67;;;;;;;17.14;99.38;102215.94;4985998;28;20031;-89
2023/08/20 06:26:51;;;;;;;4.55;1.92;;;;;;;17.16;99.42;102214.06;4960016;28;20039;-89
2023/08/20 06:29:16;;;;;;;4.30;1.55;;;;;;;17.18;99.47;102217.50;4993109;28;20331;-89
2023/08/20 06:31:42;;;;;;;5.40;1.60;;;;;;;17.18;99.22;102222.81;4985717;28;20110;-89
2023/08/20 06:34:07;;;;;;;3.80;1.90;;;;;;;17.20;98.94;102228.88;5016463;28;20057;-89
2023/08/20 06:36:33;;;;;;;3.92;1.55;;;;;;;17.21;98.88;102223.50;4966930;28;20023;-89
2023/08/20 06:38:58;;;;;;;5.63;1.88;;;;;;;17.22;98.90;102227.00;4976721;28;20034;-89
2023/08/20 06:41:23;;;;;;;5.15;1.75;;;;;;;17.24;98.70;102227.78;4959177;28;20042;-89
2023/08/20 06:43:49;;;;;;;3.00;1.48;;;;;;;17.26;98.77;102228.56;4973976;28;20336;-89
2023/08/20 06:46:14;;;;;;;3.90;1.60;;;;;;;17.27;98.90;102219.72;4978062;28;20038;-89
2023/08/20 06:48:40;;;;;;;7.72;2.25;;;;;;;17.29;98.99;102228.44;4982921;28;20040;-89
2023/08/20 06:51:11;;;;;;;5.32;1.55;;;;;;;17.31;98.91;102228.38;4980240;28;20114;-89
2023/08/20 06:53:37;;;;;;;6.40;1.83;;;;;;;17.31;99.55;102237.16;4967676;28;20041;-89
2023/08/20 06:56:03;;;;;;;4.03;1.40;;;;;;;17.33;99.21;102232.66;4973430;28;20035;-89
2023/08/20 06:58:29;;;;;;;4.97;1.85;;;;;;;17.35;99.24;102233.44;4964890;28;20164;-89
2023/08/20 07:00:54;;;;;;;8.18;1.77;;;;;;;17.37;99.21;102236.91;4966882;28;20034;-89
2023/08/20 07:03:19;;;;;;;3.70;1.63;;;;;;;17.41;99.18;102245.56;4980077;28;20038;-89
2023/08/20 07:05:45;;;;;;;3.75;1.20;;;;;;;17.42;99.40;102249.91;4976352;28;20062;-89
2023/08/20 07:08:10;;;;;;;9.45;2.25;;;;;;;17.45;99.52;102250.63;4991648;28;20057;-89
2023/08/20 07:10:36;;;;;;;6.93;1.60;;;;;;;17.46;99.51;102247.06;4989706;28;20042;-89
2023/08/20 07:13:01;;;;;;;4.20;1.45;;;;;;;17.50;99.49;102255.72;4959337;28;20023;-89
2023/08/20 07:15:27;;;;;;;8.77;1.83;;;;;;;17.53;99.34;102260.00;4986522;28;20042;-89
2023/08/20 07:17:52;;;;;;;5.15;1.50;;;;;;;17.55;99.37;102266.06;4959416;28;20042;-89
2023/08/20 07:20:18;;;;;;;9.95;2.10;;;;;;;17.57;99.85;102265.09;4976891;28;20035;-89
2023/08/20 07:22:43;;;;;;;5.57;2.28;;;;;;;17.60;99.78;102261.41;4977677;28;20332;-89
2023/08/20 07:25:08;;;;;;;5.65;1.80;;;;;;;17.62;99.82;102271.00;4977908;28;20070;-89
2023/08/20 07:27:34;;;;;;;8.25;2.45;;;;;;;17.64;99.60;102271.81;4992969;28;20238;-88
2023/08/20 07:29:59;;;;;;;5.22;1.75;;;;;;;17.66;99.85;102261.13;4972135;28;20415;-89
2023/08/20 07:32:25;;;;;;;3.13;1.60;;;;;;;17.70;99.61;102270.66;4959748;28;20037;-89
2023/08/20 07:34:50;;;;;;;11.90;2.58;;;;;;;17.73;99.75;102272.28;4966941;28;20029;-89
2023/08/20 07:37:16;;;;;;;4.72;1.88;;;;;;;17.75;99.86;102268.63;4965435;28;20030;-89
2023/08/20 07:39:41;;;;;;;5.90;1.73;;;;;;;17.78;99.85;102272.94;4958614;28;20318;-89
2023/08/20 07:42:18;;;;;;;7.18;1.95;;;;;;;17.80;99.92;102269.25;4976564;28;20043;-89
2023/08/20 07:44:43;;;;;;;4.50;1.50;;;;;;;17.83;100.00;102284.16;4958864;28;20027;-89
2023/08/20 07:47:08;;;;;;;2.45;1.08;;;;;;;17.86;100.00;102284.03;4958899;28;20073;-89
2023/08/20 07:49:34;;;;;;;8.15;1.83;;;;;;;17.90;99.82;102287.41;4996364;28;20038;-89
2023/08/20 07:51:59;;;;;;;5.43;1.75;;;;;;;17.92;100.00;102288.16;4973802;28;20030;-89
2023/08/20 07:54:25;;;;;;;6.03;1.90;;;;;;;17.95;100.00;102290.69;4987250;28;20102;-89
2023/08/20 07:56:50;;;;;;;3.08;1.30;;;;;;;17.98;100.00;102290.53;4974494;28;20264;-89
2023/08/20 07:59:15;;;;;;;6.65;1.90;;;;;;;17.99;99.96;102290.47;4977827;28;20037;-89
2023/08/20 08:01:41;;;;;;;7.50;1.80;;;;;;;18.02;100.00;102290.31;4973122;28;20034;-89
2023/08/20 08:04:06;;;;;;;10.38;2.60;;;;;;;18.06;99.82;102291.00;4984061;28;20344;-89
2023/08/20 08:06:32;;;;;;;4.43;1.80;;;;;;;18.11;100.00;102298.75;4975605;28;20039;-89
2023/08/20 08:09:14;;;;;;;3.95;1.70;;;;;;;18.13;100.00;102299.53;4972087;28;20072;-88
2023/08/20 08:11:40;;;;;;;5.68;2.17;;;;;;;18.17;100.00;102309.03;4966130;28;20033;-89
2023/08/20 08:14:05;;;;;;;9.85;2.28;;;;;;;18.18;100.00;102308.97;4964041;28;20253;-89
2023/08/20 08:16:31;;;;;;;8.30;2.20;;;;;;;18.21;99.90;102297.38;4970814;28;20027;-89
2023/08/20 08:18:56;;;;;;;7.38;1.80;;;;;;;18.25;99.99;102306.03;4956918;28;20039;-89
2023/08/20 08:21:21;;;;;;;6.93;1.65;;;;;;;18.25;99.56;102304.22;4982919;28;20045;-89
2023/08/20 08:23:47;;;;;;;5.53;2.30;;;;;;;18.28;99.86;102304.09;4981912;28;20058;-89
2023/08/20 08:26:12;;;;;;;4.95;1.63;;;;;;;18.31;99.82;102298.59;4974125;28;20057;-89
2023/08/20 08:28:38;;;;;;;5.95;1.85;;;;;;;18.33;99.57;102302.03;4999243;28;20037;-89
2023/08/20 08:31:03;;;;;;;6.60;1.70;;;;;;;18.36;99.36;102295.75;4979691;28;20054;-89
2023/08/20 08:33:28;;;;;;;6.32;1.77;;;;;;;18.36;99.22;102295.75;4981300;28;20064;-89
2023/08/20 08:35:54;;;;;;;5.40;1.92;;;;;;;18.39;99.13;102306.16;4986593;28;20350;-89
2023/08/20 08:38:19;;;;;;;5.55;1.73;;;;;;;18.40;99.34;102307.91;4970953;28;20363;-89
2023/08/20 08:40:45;;;;;;;6.63;1.60;;;;;;;18.44;98.97;102304.16;4975562;28;20332;-89
2023/08/20 08:43:16;;;;;;;4.93;1.77;;;;;;;18.45;98.91;102308.53;4984984;28;20048;-89
2023/08/20 08:45:45;;;;;;;7.85;2.03;;;;;;;18.47;99.05;102306.66;4974751;28;20030;-89
2023/08/20 08:48:11;;;;;;;7.43;2.25;;;;;;;18.51;99.25;102312.66;4977945;28;20109;-89
2023/08/20 08:50:36;;;;;;;4.40;1.98;;;;;;;18.52;98.83;102312.59;4974640;28;20030;-89
2023/08/20 08:53:02;;;;;;;6.00;1.70;;;;;;;18.54;98.86;102313.38;4984569;28;20033;-89
2023/08/20 08:55:27;;;;;;;4.03;1.52;;;;;;;18.58;98.90;102319.38;4975399;28;20042;-89
2023/08/20 08:57:53;;;;;;;7.50;1.90;;;;;;;18.59;98.82;102316.66;4980590;28;20033;-89
2023/08/20 09:00:18;;;;;;;8.30;1.90;;;;;;;18.64;98.88;102312.91;4991235;28;20042;-89
2023/08/20 09:02:44;;;;;;;4.82;2.20;;;;;;;18.65;98.38;102311.97;4999500;28;20485;-89
2023/08/20 09:05:09;;;;;;;7.00;1.85;;;;;;;18.67;97.86;102315.41;4988243;28;20050;-89
2023/08/20 09:07:34;;;;;;;7.50;1.50;;;;;;;18.69;97.93;102319.69;4979063;28;20112;-89
2023/08/20 09:10:00;;;;;;;4.82;1.60;;;;;;;18.71;97.83;102319.59;4960524;28;20350;-89
2023/08/20 09:12:26;;;;;;;2.70;1.52;;;;;;;18.74;97.20;102322.97;4978295;28;20348;-89
2023/08/20 09:14:52;;;;;;;5.00;1.55;;;;;;;18.77;97.00;102327.25;4985003;28;20045;-89
2023/08/20 09:17:21;;;;;;;3.72;1.20;;;;;;;18.78;96.41;102326.31;4975781;28;20019;-89
2023/08/20 09:19:47;;;;;;;4.53;1.10;;;;;;;18.79;95.85;102325.34;4988600;28;20072;-89
2023/08/20 09:22:13;;;;;;;4.97;1.50;;;;;;;18.79;95.55;102320.94;4974037;28;20144;-89
2023/08/20 09:24:42;;;;;;;3.85;1.10;;;;;;;18.84;95.49;102326.00;4985360;28;20031;-89
2023/08/20 09:27:08;;;;;;;3.67;1.40;;;;;;;18.85;95.77;102319.78;4976898;28;20046;-89
2023/08/20 09:29:43;;;;;;;4.20;1.33;;;;;;;18.88;95.98;102324.06;4992485;28;20220;-89
2023/08/20 09:32:15;;;;;;;7.68;2.30;;;;;;;18.91;96.31;102319.44;4994532;28;20372;-89
2023/08/20 09:34:40;;;;;;;4.55;1.88;;;;;;;18.94;96.18;102319.28;4980471;28;20025;-89
2023/08/20 09:37:13;;;;;;;3.75;1.73;;;;;;;18.97;96.24;102324.44;4984783;28;20101;-89
2023/08/20 09:39:38;;;;;;;5.40;1.75;;;;;;;19.01;96.01;102327.81;4973710;28;20092;-89
2023/08/20 09:42:08;;;;;;;4.53;1.77;;;;;;;19.03;95.61;102328.56;4975682;28;20309;-89
2023/08/20 09:44:37;;;;;;;3.20;1.20;;;;;;;19.04;95.00;102326.78;4966257;28;20117;-89
2023/08/20 09:47:07;;;;;;;9.80;1.73;;;;;;;19.08;95.11;102330.97;4983183;28;20057;-89
2023/08/20 09:49:37;;;;;;;4.18;1.10;;;;;;;19.09;94.92;102333.56;4978102;28;20063;-89
2023/08/20 09:52:05;;;;;;;4.65;1.50;;;;;;;19.12;94.47;102332.56;4979293;28;20400;-89
2023/08/20 09:54:41;;;;;;;5.15;1.27;;;;;;;19.16;94.34;102328.78;4976183;28;20057;-89
2023/08/20 09:57:14;;;;;;;5.13;1.90;;;;;;;19.17;94.24;102333.13;4983296;28;20355;-89
2023/08/20 09:59:41;;;;;;;2.78;1.20;;;;;;;19.20;94.29;102335.63;4977788;28;20030;-89
2023/08/20 10:02:12;;;;;;;3.72;1.30;;;;;;;19.23;94.46;102324.88;4978411;28;20324;-89
2023/08/20 10:04:37;;;;;;;2.33;1.10;;;;;;;19.26;94.01;102340.59;4978505;28;20038;-89
2023/08/20 10:07:03;;;;;;;2.65;1.08;;;;;;;19.29;93.77;102336.94;4989576;28;20483;-89
2023/08/20 10:09:29;;;;;;;3.58;1.20;;;;;;;19.32;93.82;102334.13;4966406;28;20027;-89
2023/08/20 10:11:54;;;;;;;3.80;1.25;;;;;;;19.33;93.64;102322.56;4976774;28;20206;-89
2023/08/20 10:14:20;;;;;;;4.22;1.42;;;;;;;19.34;93.85;102329.59;4975905;28;20027;-89
2023/08/20 10:16:46;;;;;;;6.18;1.20;;;;;;;19.40;93.78;102333.72;4978836;28;20026;-89
2023/08/20 10:19:11;;;;;;;7.00;1.42;;;;;;;19.42;93.31;102327.38;4983114;28;20352;-89
2023/08/20 10:21:44;;;;;;;6.07;1.27;;;;;;;19.43;93.24;102325.56;4992815;28;20436;-89
2023/08/20 10:24:10;;;;;;;5.78;1.50;;;;;;;19.46;93.33;102328.06;4976346;28;20278;-89
2023/08/20 10:26:36;;;;;;;3.25;1.10;;;;;;;19.49;93.25;102330.56;4993949;28;20038;-89
2023/08/20 10:29:38;;;;;;;7.45;1.67;;;;;;;19.54;93.42;102326.69;4986077;28;20243;-89
2023/08/20 10:32:15;;;;;;;4.68;1.27;;;;;;;19.57;93.26;102325.66;4979806;28;20025;-89
2023/08/20 10:34:51;;;;;;;4.68;1.45;;;;;;;19.59;93.11;102325.56;4978837;28;20244;-89
2023/08/20 10:37:29;;;;;;;2.65;1.35;;;;;;;19.62;92.68;102322.75;4987019;28;20049;-89
2023/08/20 10:39:58;;;;;;;6.85;1.15;;;;;;;19.64;92.98;102329.69;4964430;28;20126;-89
2023/08/20 10:42:29;;;;;;;6.20;1.02;;;;;;;19.65;92.25;102323.44;4977442;28;20038;-89
2023/08/20 10:45:05;;;;;;;7.63;1.05;;;;;;;19.68;92.25;102319.75;4971561;28;20037;-89
2023/08/20 10:47:41;;;;;;;2.60;0.90;;;;;;;19.71;91.52;102323.09;4982308;28;20049;-89
2023/08/20 10:50:10;;;;;;;3.53;0.93;;;;;;;19.75;91.60;102321.16;4972707;28;20034;-89
2023/08/20 10:52:48;;;;;;;2.65;0.90;;;;;;;19.78;91.60;102328.13;4975859;28;20555;-89
2023/08/20 10:55:21;;;;;;;5.82;1.17;;;;;;;19.80;91.07;102326.22;4973061;28;20034;-89
2023/08/20 10:57:55;;;;;;;4.07;1.10;;;;;;;19.81;90.95;102312.84;4974904;28;20026;-89
2023/08/20 11:00:21;;;;;;;3.58;0.95;;;;;;;19.83;90.43;102323.38;4975299;28;20036;-89
2023/08/20 11:02:47;;;;;;;4.22;1.02;;;;;;;19.86;90.43;102323.22;4978752;28;20046;-89
2023/08/20 11:05:21;;;;;;;2.35;1.08;;;;;;;19.92;90.32;102325.53;4972873;28;20048;-89
2023/08/20 11:07:49;;;;;;;6.03;1.20;;;;;;;19.92;90.12;102322.88;4981273;28;20108;-89
2023/08/20 11:10:16;;;;;;;6.75;1.35;;;;;;;19.94;90.41;102316.53;4975569;28;20041;-89
2023/08/20 11:12:48;;;;;;;3.15;1.30;;;;;;;19.98;90.25;102319.88;4976301;28;20038;-89
2023/08/20 11:15:13;;;;;;;3.33;1.10;;;;;;;20.00;90.01;102320.63;4976611;28;20371;-89
2023/08/20 11:17:44;;;;;;;4.47;1.40;;;;;;;20.01;90.17;102309.06;4976660;28;20038;-89
2023/08/20 11:20:12;;;;;;;2.80;1.15;;;;;;;20.05;89.72;102309.75;4980054;28;20108;-89
2023/08/20 11:22:40;;;;;;;3.83;1.38;;;;;;;20.06;89.67;102322.94;4998596;28;20037;-89
2023/08/20 11:25:06;;;;;;;2.83;1.35;;;;;;;20.10;89.60;102312.97;4964909;28;20058;-89